ΕΜΥ, Εθνική Μετεωρολογική Υπηρεσία - Δελτία Καιρού, Προγνώσεις

ΑΕΡΟΝΑΥΤΙΛΙΑ

GREEK AIRPORTS CODES

LGAV 231420Z 11006KT 080V140 9999 FEW030 29/09 Q1009 RMK FEW180 NOSIG=

EUROPEAN AIRPORTS CODES

LFPO 231436Z 26010KT 230V290 9999 BKN022 BKN033 18/14 Q1003NOSIG=